Terminal Aerodrome Forecast
Issued by NWS

Home | Current Version | Previous Version | Text Only | Print | Product List | Glossary On
Versions: 1 2 3 4 5 6 7 8 9 10 11 12 13 14 15 16
000
FTUS43 KABR 230811 AAA
TAFATY
TAF AMD
KATY 230811Z 2308/2406 VRB06KT P6SM VCSH SCT070 BKN090
     FM231400 16009KT P6SM SCT050 BKN070
     FM240200 12006KT P6SM OVC040=

USA.gov is the U.S. government's official web portal to all federal, state and local government web resources and services.